Time;durP1;ratioP1;P1;durP2;ratioP2;P2;SDS_P1;SDS_P2;PMS_P1;PMS_P2;Temp;Humidity;BMP_temperature;BMP_pressure;BME280_temperature;BME280_humidity;BME280_pressure;Samples;Min_cycle;Max_cycle;Signal;HPM_P1;HPM_P2
2023/08/11 00:01:01;;;;;;;8.70;4.77;;;17.20;73.90;;;;;;5747334;22;21942;-76
2023/08/11 00:03:26;;;;;;;7.67;4.70;;;17.20;73.60;;;;;;5020819;28;20599;-77
2023/08/11 00:05:55;;;;;;;6.40;4.80;;;17.10;74.20;;;;;;5011950;28;20471;-79
2023/08/11 00:08:21;;;;;;;7.57;5.03;;;17.10;74.50;;;;;;5032995;28;20193;-78
2023/08/11 00:10:48;;;;;;;7.60;4.97;;;17.20;74.30;;;;;;5016398;28;21078;-78
2023/08/11 00:13:16;;;;;;;9.10;5.60;;;17.20;74.00;;;;;;4995164;28;20438;-79
2023/08/11 00:15:43;;;;;;;7.80;5.43;;;17.20;73.70;;;;;;5010929;23;20512;-83
2023/08/11 00:18:10;;;;;;;7.87;4.63;;;17.20;73.60;;;;;;5017797;28;21003;-82
2023/08/11 00:20:36;;;;;;;9.40;5.40;;;17.30;73.50;;;;;;5014677;28;20489;-80
2023/08/11 00:23:03;;;;;;;7.10;5.07;;;17.20;73.50;;;;;;5001501;28;21372;-82
2023/08/11 00:25:29;;;;;;;8.30;4.90;;;17.20;73.60;;;;;;4991452;28;20450;-79
2023/08/11 00:27:54;;;;;;;9.57;5.40;;;17.10;74.00;;;;;;4995947;28;20434;-80
2023/08/11 00:30:20;;;;;;;7.73;4.63;;;17.10;74.20;;;;;;4992530;28;20229;-80
2023/08/11 00:32:46;;;;;;;8.80;5.07;;;17.10;74.00;;;;;;5001486;28;20191;-82
2023/08/11 00:35:11;;;;;;;7.33;4.73;;;17.20;73.60;;;;;;4996647;28;20663;-81
2023/08/11 00:37:37;;;;;;;6.93;5.00;;;17.10;73.60;;;;;;4995854;28;20312;-81
2023/08/11 00:40:04;;;;;;;7.10;4.67;;;17.00;73.90;;;;;;4988442;28;20211;-79
2023/08/11 00:42:30;;;;;;;9.33;5.20;;;17.00;73.90;;;;;;4995643;28;20228;-79
2023/08/11 00:44:58;;;;;;;7.60;4.23;;;17.00;73.90;;;;;;4985774;28;20422;-78
2023/08/11 00:47:23;;;;;;;8.20;4.73;;;17.00;73.60;;;;;;4991107;28;20176;-79
2023/08/11 00:49:49;;;;;;;8.97;5.00;;;16.90;73.90;;;;;;4997712;28;20440;-80
2023/08/11 00:52:15;;;;;;;6.77;4.73;;;17.00;74.00;;;;;;4994236;28;20200;-80
2023/08/11 00:54:42;;;;;;;6.73;4.20;;;17.00;74.00;;;;;;4995622;28;20441;-79
2023/08/11 00:57:08;;;;;;;8.30;4.93;;;17.00;74.00;;;;;;4997828;28;20226;-80
2023/08/11 00:59:34;;;;;;;6.87;4.43;;;17.00;74.00;;;;;;4996660;28;20800;-79
2023/08/11 01:01:59;;;;;;;8.10;4.90;;;17.00;74.00;;;;;;4998025;28;20496;-78
2023/08/11 01:04:25;;;;;;;5.80;4.20;;;17.00;73.60;;;;;;5007417;28;20200;-79
2023/08/11 01:07:04;;;;;;;7.63;4.50;;;17.00;73.30;;;;;;4989568;28;20207;-80
2023/08/11 01:09:41;;;;;;;7.07;4.90;;;17.00;73.30;;;;;;5006552;28;20194;-80
2023/08/11 01:12:13;;;;;;;7.33;4.60;;;17.00;73.30;;;;;;5009238;28;20441;-81
2023/08/11 01:15:02;;;;;;;6.40;4.20;;;17.10;73.30;;;;;;4998846;28;20434;-81
2023/08/11 01:17:29;;;;;;;6.90;4.63;;;17.00;73.60;;;;;;5016032;28;20474;-79
2023/08/11 01:19:55;;;;;;;6.87;5.20;;;16.80;74.30;;;;;;5001618;28;20425;-81
2023/08/11 01:22:24;;;;;;;7.60;4.37;;;16.70;74.60;;;;;;5003907;28;20514;-80
2023/08/11 01:24:51;;;;;;;7.20;4.60;;;16.70;74.90;;;;;;4993533;28;20832;-80
2023/08/11 01:27:17;;;;;;;10.57;5.30;;;16.70;75.10;;;;;;4989703;28;20426;-81
2023/08/11 01:29:42;;;;;;;6.73;4.30;;;16.70;75.10;;;;;;4997881;28;20467;-79
2023/08/11 01:32:08;;;;;;;7.07;4.73;;;16.70;75.10;;;;;;4991333;28;20232;-79
2023/08/11 01:34:35;;;;;;;7.27;4.47;;;16.70;74.80;;;;;;4996238;28;20206;-80
2023/08/11 01:37:01;;;;;;;7.83;4.90;;;16.60;74.90;;;;;;4989718;28;20998;-81
2023/08/11 01:39:31;;;;;;;6.53;4.57;;;16.50;75.10;;;;;;4997879;28;20443;-79
2023/08/11 01:41:57;;;;;;;8.53;4.90;;;16.60;75.50;;;;;;5004623;28;20472;-80
2023/08/11 01:44:25;;;;;;;8.03;4.90;;;16.70;75.40;;;;;;4994108;28;20446;-79
2023/08/11 01:46:54;;;;;;;6.70;5.03;;;16.70;74.90;;;;;;5002492;28;20817;-80
2023/08/11 01:49:22;;;;;;;9.90;4.80;;;16.60;75.20;;;;;;5002398;28;20564;-80
2023/08/11 01:51:47;;;;;;;9.80;5.10;;;16.30;76.10;;;;;;4999749;28;20472;-80
2023/08/11 01:54:14;;;;;;;6.30;4.43;;;16.20;76.50;;;;;;5019126;28;20443;-81
2023/08/11 01:56:41;;;;;;;7.37;4.90;;;16.10;76.70;;;;;;5000775;28;20234;-82
2023/08/11 01:59:12;;;;;;;8.87;5.30;;;16.10;76.50;;;;;;5021065;28;20477;-82
2023/08/11 02:01:40;;;;;;;8.03;5.17;;;16.10;76.70;;;;;;5004908;28;20586;-82
2023/08/11 02:04:05;;;;;;;9.60;4.70;;;16.20;76.40;;;;;;4994075;28;20506;-82
2023/08/11 02:06:32;;;;;;;7.30;5.00;;;16.20;76.10;;;;;;4990913;28;20437;-81
2023/08/11 02:08:58;;;;;;;7.80;4.60;;;16.30;75.80;;;;;;5002156;28;20193;-82
2023/08/11 02:11:25;;;;;;;5.60;4.50;;;16.30;75.20;;;;;;4988116;28;20481;-82
2023/08/11 02:13:50;;;;;;;5.63;3.73;;;16.40;74.60;;;;;;4991922;28;20186;-83
2023/08/11 02:16:18;;;;;;;6.83;4.27;;;16.40;74.30;;;;;;5013618;28;20492;-83
2023/08/11 02:18:44;;;;;;;8.07;4.97;;;16.40;74.20;;;;;;4976889;28;20208;-80
2023/08/11 02:21:10;;;;;;;6.13;4.60;;;16.40;74.20;;;;;;5001467;28;20473;-80
2023/08/11 02:23:36;;;;;;;8.00;4.70;;;16.50;74.60;;;;;;4982473;28;20557;-80
2023/08/11 02:26:05;;;;;;;9.17;5.20;;;16.50;74.80;;;;;;4992911;28;20196;-80
2023/08/11 02:28:31;;;;;;;8.17;5.33;;;16.50;75.10;;;;;;4991033;28;20433;-84
2023/08/11 02:30:57;;;;;;;8.27;4.97;;;16.40;75.20;;;;;;4991466;28;20462;-81
2023/08/11 02:33:23;;;;;;;7.70;4.43;;;16.40;75.50;;;;;;4987347;28;20199;-81
2023/08/11 02:35:48;;;;;;;7.03;4.53;;;16.40;75.50;;;;;;4991857;28;20490;-80
2023/08/11 02:38:15;;;;;;;5.40;4.30;;;16.30;75.50;;;;;;4994543;28;20634;-80
2023/08/11 02:40:42;;;;;;;7.77;4.63;;;16.30;75.70;;;;;;4993443;28;20206;-80
2023/08/11 02:43:08;;;;;;;6.87;4.10;;;16.20;75.70;;;;;;4986138;28;20434;-80
2023/08/11 02:45:35;;;;;;;7.00;5.10;;;16.20;75.70;;;;;;4997449;28;20525;-81
2023/08/11 02:48:01;;;;;;;6.47;4.30;;;16.10;75.80;;;;;;5004896;28;20174;-80
2023/08/11 02:50:27;;;;;;;7.47;4.53;;;16.10;75.90;;;;;;5008137;28;20497;-79
2023/08/11 02:52:53;;;;;;;6.50;4.27;;;16.10;75.90;;;;;;5007441;28;20183;-81
2023/08/11 02:55:19;;;;;;;7.60;4.80;;;16.10;75.70;;;;;;5026830;28;20442;-82
2023/08/11 02:57:45;;;;;;;7.80;5.57;;;16.20;75.40;;;;;;5014463;28;20477;-82
2023/08/11 03:00:15;;;;;;;8.00;5.40;;;16.20;75.10;;;;;;5004862;28;20478;-83
2023/08/11 03:02:41;;;;;;;6.43;4.40;;;16.20;75.20;;;;;;5003282;28;20534;-80
2023/08/11 03:05:12;;;;;;;6.93;5.10;;;16.20;75.20;;;;;;5013051;28;20458;-79
2023/08/11 03:07:38;;;;;;;7.77;5.20;;;16.20;75.20;;;;;;4998261;28;20516;-81
2023/08/11 03:10:05;;;;;;;9.47;5.73;;;16.30;75.10;;;;;;4994212;28;20948;-80
2023/08/11 03:12:32;;;;;;;8.90;5.57;;;16.30;74.80;;;;;;4989921;28;20190;-84
2023/08/11 03:14:58;;;;;;;6.23;4.83;;;16.30;74.90;;;;;;4999592;28;20453;-82
2023/08/11 03:17:23;;;;;;;9.03;4.80;;;16.30;74.90;;;;;;4998041;28;20983;-82
2023/08/11 03:19:49;;;;;;;10.07;5.20;;;16.30;74.80;;;;;;4993992;28;20211;-82
2023/08/11 03:22:18;;;;;;;8.43;4.70;;;16.20;75.10;;;;;;5003023;28;20217;-80
2023/08/11 03:24:46;;;;;;;7.73;5.03;;;16.20;74.90;;;;;;5008517;28;20182;-80
2023/08/11 03:27:12;;;;;;;8.10;5.57;;;16.20;74.90;;;;;;5008110;28;20430;-79
2023/08/11 03:29:38;;;;;;;9.97;5.50;;;16.20;75.10;;;;;;5012973;28;20425;-81
2023/08/11 03:32:04;;;;;;;8.97;5.27;;;16.20;74.90;;;;;;5020273;28;20214;-77
2023/08/11 03:34:30;;;;;;;8.40;5.03;;;16.20;75.10;;;;;;5003405;28;20445;-77
2023/08/11 03:36:56;;;;;;;6.50;4.20;;;16.20;74.90;;;;;;5004416;28;21043;-79
2023/08/11 03:39:21;;;;;;;9.00;4.77;;;16.20;75.10;;;;;;4995802;28;20838;-78
2023/08/11 03:41:47;;;;;;;9.80;4.93;;;16.20;75.10;;;;;;4996157;28;20229;-82
2023/08/11 03:44:12;;;;;;;8.30;5.07;;;16.10;75.20;;;;;;5006954;28;20276;-82
2023/08/11 03:46:38;;;;;;;7.67;5.30;;;16.10;75.40;;;;;;5014794;28;20186;-82
2023/08/11 03:49:06;;;;;;;11.10;5.43;;;16.10;75.50;;;;;;5012459;28;20201;-78
2023/08/11 03:51:33;;;;;;;6.87;4.40;;;16.10;75.70;;;;;;5008657;28;20469;-83
2023/08/11 03:54:02;;;;;;;7.23;4.57;;;16.10;75.70;;;;;;5001998;28;20434;-81
2023/08/11 03:56:29;;;;;;;8.97;4.53;;;16.10;75.50;;;;;;5009863;28;20503;-81
2023/08/11 03:58:55;;;;;;;9.10;4.63;;;16.00;75.70;;;;;;5003624;28;20451;-81
2023/08/11 04:01:22;;;;;;;11.20;5.10;;;16.00;75.90;;;;;;5009375;28;21048;-81
2023/08/11 04:03:48;;;;;;;9.70;5.23;;;16.00;75.90;;;;;;4989467;28;20190;-82
2023/08/11 04:06:14;;;;;;;10.37;5.33;;;16.00;76.10;;;;;;4990884;28;20436;-82
2023/08/11 04:08:40;;;;;;;8.07;5.37;;;16.00;76.10;;;;;;4990131;28;20500;-81
2023/08/11 04:11:05;;;;;;;7.50;4.73;;;16.00;76.10;;;;;;4989939;28;21003;-81
2023/08/11 04:13:32;;;;;;;7.40;4.90;;;16.10;75.70;;;;;;4987647;28;20272;-80
2023/08/11 04:15:59;;;;;;;12.07;5.27;;;16.10;75.40;;;;;;5013236;28;20241;-80
2023/08/11 04:18:25;;;;;;;12.73;5.87;;;16.10;75.40;;;;;;5001846;28;20865;-82
2023/08/11 04:20:50;;;;;;;11.23;5.30;;;16.10;75.20;;;;;;4991402;28;20469;-82
2023/08/11 04:23:16;;;;;;;7.43;4.70;;;16.00;75.50;;;;;;4993638;28;20182;-81
2023/08/11 04:25:43;;;;;;;7.87;4.97;;;16.10;75.40;;;;;;5010808;28;20236;-80
2023/08/11 04:28:08;;;;;;;7.17;4.50;;;16.10;75.20;;;;;;5015108;28;20235;-81
2023/08/11 04:30:34;;;;;;;8.07;5.37;;;16.00;75.50;;;;;;5000315;28;20477;-82
2023/08/11 04:33:00;;;;;;;8.63;5.30;;;16.10;75.40;;;;;;4992511;28;20178;-81
2023/08/11 04:35:26;;;;;;;8.57;4.90;;;16.10;75.40;;;;;;4997763;28;20186;-78
2023/08/11 04:37:52;;;;;;;9.23;4.83;;;16.10;75.40;;;;;;4995758;28;20583;-78
2023/08/11 04:40:18;;;;;;;15.87;5.77;;;16.10;75.20;;;;;;4993479;28;20865;-78
2023/08/11 04:42:44;;;;;;;9.67;5.80;;;16.10;75.10;;;;;;4991210;28;20187;-78
2023/08/11 04:45:10;;;;;;;8.50;5.13;;;16.10;75.10;;;;;;5001142;28;20422;-78
2023/08/11 04:47:36;;;;;;;9.17;6.00;;;16.10;75.20;;;;;;5004201;28;20426;-78
2023/08/11 04:50:02;;;;;;;11.87;5.57;;;16.00;75.20;;;;;;4995763;28;20531;-79
2023/08/11 04:52:28;;;;;;;7.93;4.80;;;16.00;75.40;;;;;;4992527;28;20937;-78
2023/08/11 04:54:54;;;;;;;8.53;5.83;;;16.10;75.20;;;;;;4984061;28;20457;-79
2023/08/11 04:57:20;;;;;;;9.97;5.50;;;16.00;75.40;;;;;;4987631;28;20238;-79
2023/08/11 04:59:46;;;;;;;9.27;5.33;;;16.10;75.50;;;;;;4994109;28;20182;-80
2023/08/11 05:02:12;;;;;;;9.73;5.10;;;16.10;75.10;;;;;;4988090;28;20269;-77
2023/08/11 05:04:38;;;;;;;9.33;5.93;;;16.10;75.20;;;;;;4987686;28;20501;-77
2023/08/11 05:07:06;;;;;;;7.90;5.30;;;16.10;75.10;;;;;;4991472;28;20426;-80
2023/08/11 05:09:32;;;;;;;11.93;5.37;;;16.10;75.40;;;;;;4992792;28;20774;-76
2023/08/11 05:11:57;;;;;;;10.53;6.13;;;16.20;75.10;;;;;;4996630;28;20460;-80
2023/08/11 05:14:23;;;;;;;7.93;5.20;;;16.20;75.20;;;;;;4995703;28;20201;-81
2023/08/11 05:16:49;;;;;;;10.03;6.10;;;16.30;74.90;;;;;;5006438;28;20248;-83
2023/08/11 05:19:14;;;;;;;10.87;5.83;;;16.40;74.80;;;;;;5005259;28;20190;-83
2023/08/11 05:21:40;;;;;;;10.17;5.40;;;16.40;74.60;;;;;;5005231;28;20340;-82
2023/08/11 05:24:07;;;;;;;10.00;5.77;;;16.40;74.50;;;;;;4993615;28;20194;-83
2023/08/11 05:26:33;;;;;;;10.40;5.80;;;16.40;74.50;;;;;;5000930;28;20197;-82
2023/08/11 05:28:58;;;;;;;12.50;5.37;;;16.50;74.80;;;;;;5004793;28;20868;-83
2023/08/11 05:31:24;;;;;;;11.07;5.90;;;16.60;74.20;;;;;;4999667;28;20212;-82
2023/08/11 05:33:50;;;;;;;12.33;5.23;;;16.70;73.90;;;;;;5000207;28;20182;-82
2023/08/11 05:36:16;;;;;;;6.97;5.10;;;16.70;73.90;;;;;;5001687;28;20186;-82
2023/08/11 05:38:42;;;;;;;8.60;4.97;;;16.80;73.90;;;;;;5003258;28;20208;-84
2023/08/11 05:41:07;;;;;;;10.43;5.67;;;16.80;74.30;;;;;;4998336;28;20474;-81
2023/08/11 05:43:33;;;;;;;7.93;5.10;;;16.90;73.90;;;;;;4999308;28;20221;-83
2023/08/11 05:45:58;;;;;;;9.17;5.10;;;17.00;73.60;;;;;;4997941;28;20224;-82
2023/08/11 05:48:24;;;;;;;8.10;5.40;;;17.20;72.90;;;;;;5002238;28;20670;-83
2023/08/11 05:50:50;;;;;;;11.10;5.67;;;17.20;72.10;;;;;;4986698;28;20210;-82
2023/08/11 05:53:16;;;;;;;9.40;5.67;;;17.20;72.10;;;;;;4997264;28;20657;-81
2023/08/11 05:55:41;;;;;;;8.67;4.60;;;17.30;72.10;;;;;;4990541;28;20190;-82
2023/08/11 05:58:07;;;;;;;11.10;5.80;;;17.30;72.30;;;;;;4996702;28;20479;-82
2023/08/11 06:00:35;;;;;;;12.97;6.57;;;17.30;72.30;;;;;;5005886;28;20202;-84
2023/08/11 06:03:01;;;;;;;14.97;6.40;;;17.30;72.30;;;;;;5002442;28;20197;-82
2023/08/11 06:05:27;;;;;;;8.33;5.70;;;17.30;72.30;;;;;;5007942;28;21027;-81
2023/08/11 06:07:53;;;;;;;10.07;5.60;;;17.30;72.30;;;;;;5004846;28;20468;-83
2023/08/11 06:10:19;;;;;;;8.50;5.80;;;17.50;72.10;;;;;;5000636;28;20529;-82
2023/08/11 06:12:45;;;;;;;8.20;5.73;;;17.50;72.00;;;;;;5006631;28;20206;-82
2023/08/11 06:15:11;;;;;;;7.73;5.13;;;17.60;72.00;;;;;;5000134;28;20197;-82
2023/08/11 06:17:37;;;;;;;7.47;5.50;;;17.70;71.80;;;;;;4995283;28;20513;-83
2023/08/11 06:20:04;;;;;;;9.73;5.23;;;17.80;72.10;;;;;;5001721;28;20244;-83
2023/08/11 06:22:31;;;;;;;11.13;6.50;;;18.20;71.80;;;;;;4994281;28;20190;-84
2023/08/11 06:24:56;;;;;;;6.90;4.87;;;18.80;69.40;;;;;;4996260;28;20446;-83
2023/08/11 06:27:22;;;;;;;6.33;4.60;;;19.00;67.70;;;;;;5002454;28;20423;-82
2023/08/11 06:29:48;;;;;;;8.13;5.50;;;19.00;67.60;;;;;;5004228;28;20228;-83
2023/08/11 06:32:14;;;;;;;9.20;5.77;;;19.00;67.60;;;;;;5011751;28;20234;-83
2023/08/11 06:34:39;;;;;;;10.80;5.87;;;19.00;67.50;;;;;;5001298;28;20191;-84
2023/08/11 06:37:05;;;;;;;13.57;6.40;;;18.80;68.00;;;;;;5002263;28;20467;-84
2023/08/11 06:39:31;;;;;;;10.07;5.63;;;18.80;68.20;;;;;;5003613;28;20208;-83
2023/08/11 06:41:56;;;;;;;9.73;5.83;;;18.80;68.60;;;;;;5010420;28;20415;-83
2023/08/11 06:44:22;;;;;;;13.00;7.63;;;18.90;68.00;;;;;;5007788;28;20185;-83
2023/08/11 06:46:47;;;;;;;14.93;6.50;;;18.90;68.30;;;;;;5002849;28;20188;-84
2023/08/11 06:49:13;;;;;;;17.33;6.83;;;19.00;68.60;;;;;;4997787;28;20671;-84
2023/08/11 06:51:38;;;;;;;18.17;8.70;;;19.00;68.80;;;;;;4991190;28;20206;-83
2023/08/11 06:54:04;;;;;;;17.80;8.40;;;18.90;69.40;;;;;;4995311;28;20240;-84
2023/08/11 06:56:30;;;;;;;12.30;7.33;;;18.90;69.70;;;;;;5000263;28;20195;-82
2023/08/11 06:58:59;;;;;;;15.70;6.17;;;18.90;69.70;;;;;;4999041;28;20187;-84
2023/08/11 07:01:26;;;;;;;14.57;6.87;;;19.10;69.70;;;;;;5012907;28;20477;-83
2023/08/11 07:03:51;;;;;;;9.67;6.10;;;19.20;69.10;;;;;;5009142;28;20433;-83
2023/08/11 07:06:17;;;;;;;10.70;6.93;;;19.40;68.90;;;;;;5013273;28;20424;-82
2023/08/11 07:08:42;;;;;;;11.90;6.27;;;19.50;68.90;;;;;;4998589;28;20186;-83
2023/08/11 07:11:08;;;;;;;12.33;6.07;;;19.60;68.50;;;;;;5018113;28;20218;-83
2023/08/11 07:13:34;;;;;;;8.47;5.63;;;19.60;68.30;;;;;;4999706;28;20254;-83
2023/08/11 07:16:00;;;;;;;13.07;7.17;;;19.70;68.20;;;;;;4993143;28;20222;-83
2023/08/11 07:18:29;;;;;;;12.03;6.37;;;19.80;67.90;;;;;;5000508;28;20575;-84
2023/08/11 07:20:54;;;;;;;11.80;6.27;;;20.00;67.50;;;;;;4996310;28;20462;-83
2023/08/11 07:23:20;;;;;;;13.07;6.97;;;19.90;67.30;;;;;;4997569;28;20425;-83
2023/08/11 07:25:48;;;;;;;12.80;6.50;;;20.00;67.50;;;;;;4995703;28;20187;-83
2023/08/11 07:28:14;;;;;;;12.77;6.77;;;20.10;67.50;;;;;;4995752;28;20196;-82
2023/08/11 07:30:41;;;;;;;10.57;5.60;;;20.20;67.60;;;;;;4995876;28;20500;-82
2023/08/11 07:33:07;;;;;;;10.33;6.53;;;20.30;67.50;;;;;;5002645;28;20192;-84
2023/08/11 07:35:32;;;;;;;8.90;5.70;;;20.20;67.50;;;;;;4996144;28;20443;-83
2023/08/11 07:37:58;;;;;;;10.20;6.37;;;20.30;67.50;;;;;;5004187;28;20318;-82
2023/08/11 07:40:24;;;;;;;11.23;6.00;;;20.40;67.20;;;;;;5006307;28;20209;-83
2023/08/11 07:42:50;;;;;;;11.10;6.43;;;20.50;67.20;;;;;;4993503;28;20214;-84
2023/08/11 07:45:15;;;;;;;8.43;5.90;;;20.60;67.20;;;;;;5000022;28;20438;-83
2023/08/11 07:47:41;;;;;;;9.67;6.50;;;20.70;67.20;;;;;;5000969;28;20207;-84
2023/08/11 07:50:07;;;;;;;7.80;5.60;;;20.70;66.40;;;;;;4997519;28;20243;-84
2023/08/11 07:52:33;;;;;;;9.07;5.77;;;20.80;66.70;;;;;;5000353;28;20948;-85
2023/08/11 07:54:59;;;;;;;10.50;5.90;;;20.90;66.30;;;;;;5001609;28;20456;-83
2023/08/11 07:57:25;;;;;;;9.13;6.20;;;21.00;66.40;;;;;;5005119;28;20900;-83
2023/08/11 07:59:51;;;;;;;7.00;5.40;;;21.10;66.60;;;;;;5003803;28;20185;-83
2023/08/11 08:02:17;;;;;;;10.50;6.30;;;21.30;66.30;;;;;;5004685;28;20192;-84
2023/08/11 08:04:43;;;;;;;10.40;5.53;;;21.50;66.00;;;;;;5009180;28;20441;-84
2023/08/11 08:07:10;;;;;;;10.07;6.47;;;21.60;65.70;;;;;;5012031;28;20442;-83
2023/08/11 08:09:38;;;;;;;9.50;6.30;;;21.80;65.60;;;;;;5016336;28;20184;-81
2023/08/11 08:12:04;;;;;;;9.37;6.20;;;21.90;65.30;;;;;;5018472;28;20480;-83
2023/08/11 08:14:30;;;;;;;10.50;5.63;;;21.90;65.30;;;;;;5013799;28;20556;-84
2023/08/11 08:16:58;;;;;;;9.20;5.87;;;21.90;65.00;;;;;;5001744;28;20495;-85
2023/08/11 08:19:23;;;;;;;7.47;5.90;;;22.00;65.00;;;;;;5000214;28;20192;-83
2023/08/11 08:21:49;;;;;;;10.57;5.23;;;22.10;64.70;;;;;;5000585;28;20467;-83
2023/08/11 08:24:15;;;;;;;9.90;6.37;;;22.30;64.50;;;;;;5005300;28;20198;-83
2023/08/11 08:26:41;;;;;;;7.37;4.60;;;22.40;64.10;;;;;;4996573;28;20213;-84
2023/08/11 08:29:07;;;;;;;14.17;5.27;;;22.40;63.90;;;;;;4998437;28;20429;-84
2023/08/11 08:31:33;;;;;;;10.60;5.50;;;22.40;63.80;;;;;;5006962;28;20461;-82
2023/08/11 08:33:59;;;;;;;9.80;6.07;;;22.50;63.80;;;;;;5004449;28;20198;-82
2023/08/11 08:36:27;;;;;;;8.50;5.23;;;22.60;63.70;;;;;;5004351;28;20485;-82
2023/08/11 08:38:52;;;;;;;9.20;5.60;;;22.60;63.50;;;;;;5003128;28;20438;-86
2023/08/11 08:41:23;;;;;;;7.53;4.90;;;22.80;63.20;;;;;;4998736;28;20465;-85
2023/08/11 08:43:50;;;;;;;10.40;5.93;;;23.00;62.80;;;;;;5012843;28;20290;-84
2023/08/11 08:46:20;;;;;;;7.87;5.20;;;23.00;62.80;;;;;;5004907;28;20427;-84
2023/08/11 08:49:24;;;;;;;12.03;6.30;;;23.20;62.50;;;;;;5006226;28;20424;-84
2023/08/11 08:51:54;;;;;;;7.40;5.70;;;23.20;62.20;;;;;;4998967;28;20481;-84
2023/08/11 08:54:21;;;;;;;10.07;6.47;;;23.30;62.20;;;;;;4998693;28;20462;-85
2023/08/11 08:56:50;;;;;;;9.53;5.17;;;23.40;62.20;;;;;;5002474;28;20550;-83
2023/08/11 08:59:17;;;;;;;8.53;5.20;;;23.50;61.90;;;;;;4999981;28;20427;-84
2023/08/11 09:01:44;;;;;;;13.00;5.77;;;23.70;61.50;;;;;;4997651;28;20473;-84
2023/08/11 09:04:11;;;;;;;7.73;5.43;;;23.80;61.00;;;;;;5006757;28;20953;-84
2023/08/11 09:06:38;;;;;;;6.93;5.53;;;23.80;60.90;;;;;;4998314;28;20508;-85
2023/08/11 09:09:10;;;;;;;6.27;5.03;;;23.90;61.00;;;;;;4998490;28;20830;-85
2023/08/11 09:11:38;;;;;;;7.93;5.07;;;23.80;61.30;;;;;;5009202;28;20470;-83
2023/08/11 09:14:08;;;;;;;9.30;5.60;;;23.90;61.30;;;;;;5001745;28;20428;-86
2023/08/11 09:16:36;;;;;;;11.00;5.93;;;23.90;61.00;;;;;;5005863;28;20469;-85
2023/08/11 09:19:04;;;;;;;8.37;5.97;;;23.90;61.20;;;;;;5003964;28;20419;-85
2023/08/11 09:21:35;;;;;;;9.77;6.37;;;24.00;61.20;;;;;;4997313;28;20948;-84
2023/08/11 09:24:01;;;;;;;8.60;5.53;;;24.10;61.00;;;;;;4998972;28;20424;-85
2023/08/11 09:26:28;;;;;;;9.67;6.30;;;24.20;61.60;;;;;;4997013;28;20965;-85
2023/08/11 09:28:55;;;;;;;11.33;5.47;;;24.40;61.50;;;;;;4997647;28;20440;-85
2023/08/11 09:31:29;;;;;;;8.90;5.77;;;24.50;61.00;;;;;;5015350;28;20479;-83
2023/08/11 09:33:54;;;;;;;6.73;5.10;;;24.50;60.70;;;;;;4995665;28;20460;-84
2023/08/11 09:36:21;;;;;;;9.87;6.70;;;24.60;61.20;;;;;;5010227;28;20520;-83
2023/08/11 09:38:49;;;;;;;7.07;4.90;;;24.60;60.70;;;;;;5010482;28;20197;-84
2023/08/11 09:41:16;;;;;;;8.70;6.07;;;24.60;61.00;;;;;;5020066;28;20472;-84
2023/08/11 09:43:49;;;;;;;6.60;5.00;;;24.80;60.60;;;;;;4996282;28;20446;-84
2023/08/11 09:46:15;;;;;;;10.50;5.63;;;25.00;60.00;;;;;;4999922;28;20801;-85
2023/08/11 09:48:41;;;;;;;9.60;5.90;;;25.00;59.60;;;;;;4998123;28;20911;-85
2023/08/11 09:51:11;;;;;;;9.70;6.10;;;25.10;59.70;;;;;;4997963;28;20555;-84
2023/08/11 09:53:40;;;;;;;7.50;5.70;;;25.10;59.70;;;;;;4992555;28;20195;-85
2023/08/11 09:56:10;;;;;;;7.00;5.40;;;25.20;59.30;;;;;;5002336;28;20496;-83
2023/08/11 09:58:38;;;;;;;7.43;4.90;;;25.20;59.30;;;;;;5005332;28;20446;-83
2023/08/11 10:01:07;;;;;;;5.77;4.77;;;25.20;59.60;;;;;;5004947;28;20955;-84
2023/08/11 10:03:41;;;;;;;7.87;5.50;;;25.40;59.30;;;;;;5000899;28;20438;-83
2023/08/11 10:06:12;;;;;;;9.07;5.20;;;25.40;59.20;;;;;;5007488;28;20439;-85
2023/08/11 10:08:39;;;;;;;13.87;5.80;;;25.40;58.90;;;;;;5003014;28;20403;-84
2023/08/11 10:11:05;;;;;;;11.10;5.20;;;25.50;58.90;;;;;;5002857;28;20465;-86
2023/08/11 10:13:33;;;;;;;9.20;5.90;;;25.60;58.90;;;;;;4996720;28;20425;-84
2023/08/11 10:16:01;;;;;;;10.20;6.70;;;25.80;58.50;;;;;;5010218;28;20466;-82
2023/08/11 10:18:27;;;;;;;6.90;5.40;;;25.90;58.70;;;;;;5005872;28;20472;-83
2023/08/11 10:20:56;;;;;;;7.50;5.30;;;26.00;57.80;;;;;;5000028;28;20481;-84
2023/08/11 10:23:24;;;;;;;9.60;5.20;;;26.20;58.00;;;;;;5006888;28;20415;-85
2023/08/11 10:25:51;;;;;;;8.23;5.53;;;26.50;57.60;;;;;;5003209;28;20456;-86
2023/08/11 10:28:22;;;;;;;9.70;5.67;;;26.90;56.40;;;;;;5005356;28;20764;-84
2023/08/11 10:30:55;;;;;;;6.80;4.77;;;27.20;56.00;;;;;;5003675;28;20486;-85
2023/08/11 10:33:22;;;;;;;8.00;5.10;;;27.80;54.90;;;;;;5001667;28;20422;-85
2023/08/11 10:35:54;;;;;;;7.50;5.10;;;28.10;54.00;;;;;;5005050;28;20478;-86
2023/08/11 10:38:27;;;;;;;7.83;4.97;;;28.20;53.70;;;;;;5006629;28;20211;-84
2023/08/11 10:41:05;;;;;;;8.10;5.80;;;27.80;53.80;;;;;;5003530;28;20454;-86
2023/08/11 10:43:40;;;;;;;6.77;4.87;;;27.40;55.30;;;;;;5010930;28;20437;-83
2023/08/11 10:46:24;;;;;;;7.07;5.40;;;27.80;54.80;;;;;;5010871;28;20432;-85
2023/08/11 10:49:13;;;;;;;6.90;5.70;;;28.10;53.40;;;;;;4999239;28;20414;-85
2023/08/11 10:51:41;;;;;;;7.83;5.10;;;28.00;53.70;;;;;;4975033;28;20485;-85
2023/08/11 10:54:06;;;;;;;7.20;5.70;;;27.50;54.90;;;;;;5007857;28;20413;-84
2023/08/11 10:56:44;;;;;;;7.80;4.93;;;27.70;54.20;;;;;;5026189;28;20912;-86
2023/08/11 10:59:28;;;;;;;7.70;4.80;;;27.60;54.40;;;;;;5001555;28;20225;-84
2023/08/11 11:01:56;;;;;;;9.47;5.80;;;27.60;54.50;;;;;;4998384;28;20520;-85
2023/08/11 11:04:26;;;;;;;7.37;5.10;;;28.20;53.80;;;;;;4992567;28;20436;-87
2023/08/11 11:06:52;;;;;;;10.53;5.00;;;28.10;53.20;;;;;;5004114;28;20441;-85
2023/08/11 11:09:18;;;;;;;8.93;4.60;;;28.30;53.70;;;;;;5003665;28;20469;-85
2023/08/11 11:11:45;;;;;;;9.80;5.27;;;29.10;52.10;;;;;;5004467;28;20461;-85
2023/08/11 11:14:12;;;;;;;8.10;5.43;;;29.50;51.70;;;;;;5012645;28;20446;-83
2023/08/11 11:16:40;;;;;;;8.30;5.10;;;29.10;52.80;;;;;;5010749;28;20473;-83
2023/08/11 11:19:11;;;;;;;7.33;5.27;;;29.30;52.60;;;;;;5010280;28;20417;-83
2023/08/11 11:21:41;;;;;;;7.23;5.53;;;29.30;52.50;;;;;;5015166;28;20453;-85
2023/08/11 11:24:08;;;;;;;6.23;5.40;;;29.30;52.80;;;;;;5005621;28;20945;-84
2023/08/11 11:26:37;;;;;;;7.87;5.77;;;28.40;54.00;;;;;;5000166;28;20515;-85
2023/08/11 11:29:04;;;;;;;8.60;5.67;;;28.00;54.90;;;;;;5003122;28;20497;-84
2023/08/11 11:31:39;;;;;;;8.00;5.43;;;28.10;55.00;;;;;;4999778;28;20470;-85
2023/08/11 11:34:07;;;;;;;6.97;4.97;;;28.50;54.20;;;;;;5014390;28;20420;-84
2023/08/11 11:36:35;;;;;;;13.33;6.57;;;28.70;54.20;;;;;;5014799;28;20474;-83
2023/08/11 11:39:05;;;;;;;7.70;6.07;;;28.90;53.60;;;;;;5017748;28;20473;-83
2023/08/11 11:41:34;;;;;;;6.30;4.97;;;28.30;54.60;;;;;;5009635;28;20557;-85
2023/08/11 11:44:03;;;;;;;7.57;5.30;;;28.20;55.20;;;;;;5008121;28;20486;-84
2023/08/11 11:46:32;;;;;;;7.93;5.13;;;28.70;54.40;;;;;;5003876;28;20826;-86
2023/08/11 11:49:03;;;;;;;6.67;5.10;;;29.10;53.70;;;;;;5003605;28;20446;-85
2023/08/11 11:51:35;;;;;;;10.00;5.40;;;29.20;53.00;;;;;;4999652;28;20466;-84
2023/08/11 11:54:02;;;;;;;7.60;5.20;;;29.70;52.00;;;;;;5002205;28;20418;-82
2023/08/11 11:56:28;;;;;;;10.50;6.27;;;29.50;52.20;;;;;;5022040;28;20468;-82
2023/08/11 11:58:55;;;;;;;8.47;5.10;;;30.00;51.60;;;;;;5014118;28;20460;-84
2023/08/11 12:01:25;;;;;;;6.33;5.30;;;29.60;51.60;;;;;;5014043;28;20474;-85
2023/08/11 12:03:53;;;;;;;9.60;6.10;;;29.30;52.60;;;;;;5016955;28;20500;-82
2023/08/11 12:06:19;;;;;;;7.77;5.60;;;28.90;53.40;;;;;;5006414;28;20443;-85
2023/08/11 12:08:50;;;;;;;11.23;5.07;;;29.30;52.50;;;;;;5000493;28;20501;-84
2023/08/11 12:11:24;;;;;;;6.93;4.80;;;29.70;52.10;;;;;;4998133;28;20489;-85
2023/08/11 12:13:50;;;;;;;6.70;5.10;;;30.20;50.70;;;;;;5003560;28;20525;-86
2023/08/11 12:16:16;;;;;;;7.83;5.10;;;30.30;50.20;;;;;;5011779;28;20450;-82
2023/08/11 12:18:43;;;;;;;7.30;5.73;;;29.70;51.60;;;;;;5018178;28;20488;-84
2023/08/11 12:21:10;;;;;;;7.43;5.80;;;29.40;51.80;;;;;;5012484;28;20450;-85
2023/08/11 12:23:38;;;;;;;7.93;5.20;;;29.30;51.80;;;;;;5004684;28;20474;-84
2023/08/11 12:26:12;;;;;;;9.57;5.57;;;29.30;52.20;;;;;;5002955;28;20534;-89
2023/08/11 12:28:39;;;;;;;6.20;5.33;;;29.80;51.20;;;;;;5003081;28;20460;-83
2023/08/11 12:31:08;;;;;;;9.07;5.30;;;29.20;52.20;;;;;;4998838;28;20970;-83
2023/08/11 12:33:34;;;;;;;9.13;5.60;;;29.70;51.70;;;;;;5002068;28;20286;-86
2023/08/11 12:36:01;;;;;;;6.60;5.43;;;30.20;50.10;;;;;;5004489;28;20448;-84
2023/08/11 12:38:35;;;;;;;7.03;5.37;;;30.50;49.70;;;;;;5004843;28;20234;-84
2023/08/11 12:41:02;;;;;;;6.03;4.73;;;31.00;48.30;;;;;;4988142;28;20519;-85
2023/08/11 12:43:28;;;;;;;8.80;5.57;;;31.00;48.20;;;;;;5008387;28;20448;-87
2023/08/11 12:45:55;;;;;;;9.03;6.20;;;30.20;49.80;;;;;;5007269;28;20425;-84